Time;durP1;ratioP1;P1;durP2;ratioP2;P2;SDS_P1;SDS_P2;PMS_P1;PMS_P2;Temp;Humidity;BMP_temperature;BMP_pressure;BME280_temperature;BME280_humidity;BME280_pressure;Samples;Min_cycle;Max_cycle;Signal;HPM_P1;HPM_P2
2023/09/20 00:01:59;;;;;;;3.25;1.15;;;19.70;99.90;;;;;;5055376;28;20204;-75
2023/09/20 00:04:29;;;;;;;1.60;1.05;;;19.70;99.90;;;;;;5055226;28;20165;-75
2023/09/20 00:06:55;;;;;;;3.03;1.10;;;19.60;99.90;;;;;;5055326;28;20246;-75
2023/09/20 00:09:26;;;;;;;3.00;1.20;;;19.60;99.90;;;;;;5062471;28;20201;-75
2023/09/20 00:11:53;;;;;;;2.05;1.02;;;19.60;99.90;;;;;;5056985;28;20181;-72
2023/09/20 00:14:19;;;;;;;2.17;1.23;;;19.50;99.90;;;;;;5055565;28;20189;-75
2023/09/20 00:16:44;;;;;;;2.20;1.40;;;19.50;99.90;;;;;;5054924;28;20197;-75
2023/09/20 00:19:10;;;;;;;2.75;1.60;;;19.50;99.90;;;;;;5056063;28;20177;-73
2023/09/20 00:21:38;;;;;;;3.97;2.08;;;19.40;99.90;;;;;;5053672;28;20269;-74
2023/09/20 00:24:06;;;;;;;2.10;1.60;;;19.40;99.90;;;;;;5056434;28;20199;-74
2023/09/20 00:26:34;;;;;;;3.85;1.92;;;19.30;99.90;;;;;;5068842;28;20230;-71
2023/09/20 00:29:07;;;;;;;3.38;1.63;;;19.30;99.90;;;;;;5063487;28;20196;-74
2023/09/20 00:31:33;;;;;;;2.42;1.40;;;19.30;99.90;;;;;;5055860;28;20193;-68
2023/09/20 00:34:01;;;;;;;3.55;1.55;;;19.20;99.90;;;;;;5038430;28;20177;-73
2023/09/20 00:36:27;;;;;;;1.38;1.10;;;19.20;99.90;;;;;;5059583;28;20221;-74
2023/09/20 00:38:53;;;;;;;2.08;0.98;;;19.10;99.90;;;;;;5055556;28;20245;-74
2023/09/20 00:41:28;;;;;;;2.42;1.30;;;19.10;99.90;;;;;;5054927;28;20188;-79
2023/09/20 00:43:54;;;;;;;3.33;1.20;;;19.10;99.90;;;;;;5055724;28;20176;-74
2023/09/20 00:46:20;;;;;;;3.35;1.27;;;19.00;99.90;;;;;;5057157;28;20311;-73
2023/09/20 00:48:47;;;;;;;2.70;1.40;;;19.00;99.90;;;;;;5036024;28;20181;-74
2023/09/20 00:51:14;;;;;;;3.10;1.40;;;19.00;99.90;;;;;;5054465;28;20205;-77
2023/09/20 00:53:44;;;;;;;2.13;1.15;;;19.00;99.90;;;;;;5056123;28;20188;-76
2023/09/20 00:56:10;;;;;;;1.88;1.38;;;18.90;99.90;;;;;;5041119;28;20193;-74
2023/09/20 00:58:43;;;;;;;2.33;1.33;;;18.90;99.90;;;;;;5038135;28;20259;-72
2023/09/20 01:01:09;;;;;;;2.70;1.25;;;18.90;99.90;;;;;;5051881;28;20261;-76
2023/09/20 01:03:35;;;;;;;3.58;1.40;;;18.90;99.90;;;;;;5053947;28;20181;-75
2023/09/20 01:06:04;;;;;;;2.90;1.30;;;18.90;99.90;;;;;;5053633;28;20254;-75
2023/09/20 01:08:33;;;;;;;2.45;1.45;;;18.90;99.90;;;;;;5052439;28;20188;-74
2023/09/20 01:10:59;;;;;;;1.83;1.20;;;18.90;99.90;;;;;;5053333;28;20189;-77
2023/09/20 01:13:27;;;;;;;1.80;1.00;;;18.90;99.90;;;;;;5051767;28;20197;-76
2023/09/20 01:15:53;;;;;;;2.13;1.10;;;18.90;99.90;;;;;;5052553;28;20189;-78
2023/09/20 01:18:19;;;;;;;1.77;1.10;;;18.90;99.90;;;;;;5054011;28;20309;-73
2023/09/20 01:20:47;;;;;;;1.83;1.17;;;18.90;99.90;;;;;;5052412;28;20201;-76
2023/09/20 01:23:13;;;;;;;2.92;1.27;;;18.90;99.90;;;;;;5052911;28;20208;-76
2023/09/20 01:25:43;;;;;;;1.83;1.10;;;18.90;99.90;;;;;;5052810;28;20197;-75
2023/09/20 01:28:09;;;;;;;2.10;0.90;;;18.90;99.90;;;;;;5053858;28;20196;-75
2023/09/20 01:30:42;;;;;;;2.83;1.17;;;18.90;99.90;;;;;;5053071;28;20188;-74
2023/09/20 01:33:08;;;;;;;1.77;1.20;;;18.90;99.90;;;;;;5051357;28;20187;-76
2023/09/20 01:35:37;;;;;;;2.70;1.25;;;18.90;99.90;;;;;;5054096;28;20189;-75
2023/09/20 01:38:05;;;;;;;1.33;1.00;;;18.90;99.90;;;;;;5045188;28;20236;-75
2023/09/20 01:40:33;;;;;;;3.10;1.27;;;18.90;99.90;;;;;;5058471;28;20193;-76
2023/09/20 01:43:03;;;;;;;3.05;1.23;;;18.80;99.90;;;;;;5052392;28;20177;-74
2023/09/20 01:45:29;;;;;;;1.98;1.10;;;18.80;99.90;;;;;;5070256;28;20166;-74
2023/09/20 01:48:00;;;;;;;3.38;1.30;;;18.80;99.90;;;;;;5050003;28;20182;-75
2023/09/20 01:50:27;;;;;;;2.40;1.13;;;18.80;99.90;;;;;;5051811;28;20227;-76
2023/09/20 01:53:00;;;;;;;3.17;1.73;;;18.80;99.90;;;;;;5036392;28;20211;-71
2023/09/20 01:55:31;;;;;;;2.13;1.30;;;18.80;99.90;;;;;;5068676;28;20192;-76
2023/09/20 01:58:12;;;;;;;2.40;1.42;;;18.80;99.90;;;;;;5037181;28;20192;-75
2023/09/20 02:00:40;;;;;;;2.10;1.25;;;18.70;99.90;;;;;;5053124;28;20245;-77
2023/09/20 02:03:14;;;;;;;1.85;1.13;;;18.70;99.90;;;;;;5052969;28;20201;-72
2023/09/20 02:05:40;;;;;;;2.35;1.10;;;18.70;99.90;;;;;;5052652;28;20173;-75
2023/09/20 02:08:08;;;;;;;2.58;1.40;;;18.70;99.90;;;;;;5052922;28;20257;-75
2023/09/20 02:10:38;;;;;;;3.72;1.33;;;18.70;99.90;;;;;;5052889;28;20240;-73
2023/09/20 02:13:03;;;;;;;3.13;1.10;;;18.70;99.90;;;;;;5052269;28;20173;-71
2023/09/20 02:15:31;;;;;;;3.17;1.30;;;18.70;99.90;;;;;;5051659;28;20276;-74
2023/09/20 02:18:00;;;;;;;1.75;1.08;;;18.70;99.90;;;;;;5052593;28;20209;-77
2023/09/20 02:20:25;;;;;;;1.75;1.20;;;18.60;99.90;;;;;;5054262;28;20198;-75
2023/09/20 02:22:53;;;;;;;2.38;1.10;;;18.60;99.90;;;;;;5052465;28;20181;-74
2023/09/20 02:25:24;;;;;;;1.50;1.00;;;18.60;99.90;;;;;;5052454;28;20213;-77
2023/09/20 02:27:52;;;;;;;1.83;1.10;;;18.60;99.90;;;;;;5053290;28;20185;-75
2023/09/20 02:30:19;;;;;;;2.53;1.20;;;18.60;99.90;;;;;;5052396;28;20187;-76
2023/09/20 02:32:50;;;;;;;3.97;1.10;;;18.60;99.90;;;;;;5052992;28;20266;-76
2023/09/20 02:35:16;;;;;;;3.20;1.45;;;18.60;99.90;;;;;;5056179;28;20181;-74
2023/09/20 02:37:43;;;;;;;1.60;1.17;;;18.60;99.90;;;;;;5036680;28;20278;-73
2023/09/20 02:40:19;;;;;;;2.88;1.35;;;18.60;99.90;;;;;;5052411;28;20215;-75
2023/09/20 02:42:44;;;;;;;2.40;1.20;;;18.60;99.90;;;;;;5035878;28;20177;-73
2023/09/20 02:45:17;;;;;;;2.20;1.20;;;18.60;99.90;;;;;;5044580;28;20177;-75
2023/09/20 02:47:43;;;;;;;3.40;1.30;;;18.60;99.90;;;;;;5052462;28;20173;-76
2023/09/20 02:50:13;;;;;;;2.50;1.17;;;18.60;99.90;;;;;;5053826;28;21009;-72
2023/09/20 02:52:42;;;;;;;2.08;1.27;;;18.60;99.90;;;;;;5051595;28;20216;-75
2023/09/20 02:55:08;;;;;;;2.15;1.20;;;18.60;99.90;;;;;;5052181;28;20193;-69
2023/09/20 02:57:38;;;;;;;3.25;1.23;;;18.60;99.90;;;;;;5051084;28;20236;-75
2023/09/20 03:00:15;;;;;;;1.95;1.17;;;18.60;99.90;;;;;;5037598;28;20197;-75
2023/09/20 03:02:50;;;;;;;1.48;1.10;;;18.60;99.90;;;;;;5052457;28;20448;-74
2023/09/20 03:05:28;;;;;;;2.13;1.10;;;18.50;99.90;;;;;;5053680;28;20191;-72
2023/09/20 03:07:57;;;;;;;2.75;1.33;;;18.50;99.90;;;;;;5056860;28;20331;-75
2023/09/20 03:10:27;;;;;;;1.60;1.15;;;18.50;99.90;;;;;;5057490;28;20215;-75
2023/09/20 03:12:54;;;;;;;2.88;1.23;;;18.50;99.90;;;;;;5058135;28;20181;-74
2023/09/20 03:15:22;;;;;;;2.17;1.25;;;18.50;99.90;;;;;;5055469;28;20187;-74
2023/09/20 03:18:09;;;;;;;3.33;1.23;;;18.50;99.90;;;;;;5056630;28;20209;-74
2023/09/20 03:20:38;;;;;;;3.83;1.30;;;18.50;99.90;;;;;;5055270;28;20205;-73
2023/09/20 03:23:05;;;;;;;1.58;1.10;;;18.50;99.90;;;;;;5054054;28;20173;-70
2023/09/20 03:25:35;;;;;;;2.65;1.40;;;18.40;99.90;;;;;;5045677;28;20220;-76
2023/09/20 03:28:04;;;;;;;1.77;1.20;;;18.40;99.90;;;;;;5054503;28;20259;-75
2023/09/20 03:30:31;;;;;;;1.85;1.10;;;18.40;99.90;;;;;;5054602;28;20189;-76
2023/09/20 03:32:57;;;;;;;1.88;1.20;;;18.40;99.90;;;;;;5055155;28;20256;-71
2023/09/20 03:35:24;;;;;;;1.80;1.20;;;18.40;99.90;;;;;;5055119;28;20201;-72
2023/09/20 03:37:49;;;;;;;3.65;1.35;;;18.30;99.90;;;;;;5055596;28;20197;-76
2023/09/20 03:40:17;;;;;;;2.58;1.30;;;18.30;99.90;;;;;;5057018;28;20188;-74
2023/09/20 03:42:52;;;;;;;1.20;0.90;;;18.30;99.90;;;;;;5057224;28;20558;-76
2023/09/20 03:45:20;;;;;;;2.40;1.10;;;18.30;99.90;;;;;;5056382;28;20188;-76
2023/09/20 03:47:53;;;;;;;1.67;1.05;;;18.30;99.90;;;;;;5056639;28;20220;-76
2023/09/20 03:50:22;;;;;;;1.98;1.30;;;18.20;99.90;;;;;;5055074;28;20188;-75
2023/09/20 03:52:48;;;;;;;1.92;1.10;;;18.20;99.90;;;;;;5055672;28;21143;-75
2023/09/20 03:55:14;;;;;;;2.00;1.00;;;18.20;99.90;;;;;;5045082;28;20214;-72
2023/09/20 03:57:40;;;;;;;2.65;1.38;;;18.20;99.90;;;;;;5055584;28;20205;-75
2023/09/20 04:00:11;;;;;;;2.85;1.35;;;18.20;99.90;;;;;;5055147;28;20181;-76
2023/09/20 04:02:37;;;;;;;4.45;1.30;;;18.10;99.90;;;;;;5057289;28;21116;-76
2023/09/20 04:05:10;;;;;;;1.80;1.17;;;18.10;99.90;;;;;;5053752;28;20451;-72
2023/09/20 04:07:39;;;;;;;2.17;1.20;;;18.10;99.90;;;;;;5053714;28;20219;-75
2023/09/20 04:10:07;;;;;;;2.28;1.20;;;18.10;99.90;;;;;;5055071;28;20181;-75
2023/09/20 04:12:38;;;;;;;2.33;1.25;;;18.00;99.90;;;;;;5054437;28;20234;-75
2023/09/20 04:15:05;;;;;;;1.52;1.23;;;18.00;99.90;;;;;;5054184;28;20219;-74
2023/09/20 04:17:32;;;;;;;2.58;1.38;;;18.00;99.90;;;;;;5054771;28;20205;-74
2023/09/20 04:20:03;;;;;;;1.80;1.10;;;18.00;99.90;;;;;;5054467;28;20196;-74
2023/09/20 04:22:31;;;;;;;1.88;1.30;;;18.10;99.90;;;;;;5054420;28;20284;-74
2023/09/20 04:24:59;;;;;;;1.90;1.25;;;18.00;99.90;;;;;;5055120;28;20173;-76
2023/09/20 04:27:25;;;;;;;2.72;1.30;;;18.00;99.90;;;;;;5037069;28;20178;-74
2023/09/20 04:29:56;;;;;;;2.10;1.20;;;18.10;99.90;;;;;;5054084;28;20308;-74
2023/09/20 04:32:24;;;;;;;3.05;1.20;;;18.10;99.90;;;;;;5055063;28;20228;-76
2023/09/20 04:34:51;;;;;;;2.13;1.50;;;18.10;99.90;;;;;;5052217;28;20201;-75
2023/09/20 04:37:20;;;;;;;1.70;1.15;;;18.10;99.90;;;;;;5041359;28;20266;-70
2023/09/20 04:39:46;;;;;;;2.30;1.10;;;18.10;99.90;;;;;;5054738;28;20185;-75
2023/09/20 04:42:12;;;;;;;3.60;1.52;;;18.10;99.90;;;;;;5054837;28;20278;-70
2023/09/20 04:44:39;;;;;;;1.83;1.23;;;18.10;99.90;;;;;;5055012;28;20324;-76
2023/09/20 04:47:07;;;;;;;2.03;1.27;;;18.10;99.90;;;;;;5054719;28;20177;-75
2023/09/20 04:49:33;;;;;;;3.40;1.40;;;18.10;99.90;;;;;;5053778;28;20224;-77
2023/09/20 04:52:00;;;;;;;2.13;1.20;;;18.10;99.90;;;;;;5055237;28;20256;-75
2023/09/20 04:54:28;;;;;;;2.00;1.08;;;18.10;99.90;;;;;;5054319;28;20204;-76
2023/09/20 04:56:56;;;;;;;2.55;1.20;;;18.00;99.90;;;;;;5053010;28;20232;-75
2023/09/20 04:59:24;;;;;;;1.63;1.30;;;18.10;99.90;;;;;;5054279;28;20185;-72
2023/09/20 05:01:52;;;;;;;3.00;2.10;;;18.00;99.90;;;;;;5051533;28;20177;-74
2023/09/20 05:04:19;;;;;;;3.85;2.00;;;18.00;99.90;;;;;;5053008;28;20169;-74
2023/09/20 05:06:53;;;;;;;2.70;1.75;;;18.00;99.90;;;;;;5052066;28;20239;-71
2023/09/20 05:09:21;;;;;;;2.33;1.58;;;18.00;99.90;;;;;;5037805;28;20196;-75
2023/09/20 05:11:49;;;;;;;2.78;1.42;;;17.90;99.90;;;;;;5054482;28;20390;-74
2023/09/20 05:14:17;;;;;;;2.60;1.60;;;17.90;99.90;;;;;;5052391;28;20177;-75
2023/09/20 05:16:45;;;;;;;3.13;1.70;;;17.90;99.90;;;;;;5052837;28;20244;-75
2023/09/20 05:19:11;;;;;;;2.28;1.48;;;17.90;99.90;;;;;;5053700;28;21052;-73
2023/09/20 05:21:40;;;;;;;1.85;1.27;;;17.90;99.90;;;;;;5053641;28;20215;-75
2023/09/20 05:24:10;;;;;;;2.03;1.20;;;17.90;99.90;;;;;;5052731;28;20197;-71
2023/09/20 05:26:36;;;;;;;3.15;1.42;;;17.80;99.90;;;;;;5042433;28;20178;-74
2023/09/20 05:29:04;;;;;;;1.95;1.30;;;17.80;99.90;;;;;;5053775;28;20192;-75
2023/09/20 05:31:32;;;;;;;2.03;1.30;;;17.80;99.90;;;;;;5052051;28;20557;-73
2023/09/20 05:33:58;;;;;;;2.40;1.70;;;17.90;99.90;;;;;;5052453;28;20185;-75
2023/09/20 05:36:24;;;;;;;2.42;1.40;;;17.80;99.90;;;;;;5053068;28;21619;-69
2023/09/20 05:38:51;;;;;;;3.05;1.55;;;17.80;99.90;;;;;;5051924;28;20185;-77
2023/09/20 05:41:18;;;;;;;2.58;1.20;;;17.80;99.90;;;;;;5055088;28;20200;-71
2023/09/20 05:43:44;;;;;;;2.60;1.60;;;17.80;99.90;;;;;;5051491;28;20233;-73
2023/09/20 05:46:13;;;;;;;2.00;1.10;;;17.80;99.90;;;;;;5054609;28;20273;-76
2023/09/20 05:48:39;;;;;;;2.58;1.10;;;17.80;99.90;;;;;;5041357;28;20177;-74
2023/09/20 05:51:05;;;;;;;2.65;1.35;;;17.80;99.90;;;;;;5052810;28;20193;-76
2023/09/20 05:53:30;;;;;;;2.63;1.77;;;17.80;99.90;;;;;;5036449;28;20173;-77
2023/09/20 05:55:56;;;;;;;2.03;1.25;;;17.80;99.90;;;;;;5053738;28;20189;-77
2023/09/20 05:58:22;;;;;;;2.47;1.60;;;17.90;99.90;;;;;;5052417;28;20209;-74
2023/09/20 06:00:50;;;;;;;3.40;1.30;;;17.90;99.90;;;;;;5052714;28;20177;-74
2023/09/20 06:03:16;;;;;;;3.60;1.30;;;17.90;99.90;;;;;;5053816;28;20184;-76
2023/09/20 06:05:50;;;;;;;1.75;1.42;;;17.90;99.90;;;;;;5032492;28;20188;-75
2023/09/20 06:08:18;;;;;;;3.28;1.35;;;17.90;99.90;;;;;;5055188;28;20905;-75
2023/09/20 06:10:46;;;;;;;1.67;1.08;;;17.90;99.90;;;;;;5053575;28;20205;-77
2023/09/20 06:13:12;;;;;;;1.98;1.27;;;17.90;99.90;;;;;;5052769;28;20193;-75
2023/09/20 06:15:38;;;;;;;1.85;1.27;;;18.00;99.90;;;;;;5054701;28;20181;-72
2023/09/20 06:18:03;;;;;;;1.27;1.17;;;18.00;99.90;;;;;;5060584;28;20229;-65
2023/09/20 06:20:29;;;;;;;1.85;1.15;;;18.00;99.90;;;;;;5041645;28;20177;-66
2023/09/20 06:22:56;;;;;;;1.92;1.13;;;18.00;99.90;;;;;;5060949;28;20188;-66
2023/09/20 06:25:22;;;;;;;1.95;1.35;;;18.10;99.90;;;;;;5037915;28;20201;-65
2023/09/20 06:27:51;;;;;;;2.92;1.63;;;18.10;99.90;;;;;;5037306;28;20181;-66
2023/09/20 06:30:24;;;;;;;2.53;1.73;;;18.10;99.90;;;;;;5053360;28;20207;-65
2023/09/20 06:32:54;;;;;;;3.15;1.50;;;18.20;99.90;;;;;;5037113;28;20427;-65
2023/09/20 06:35:21;;;;;;;3.25;1.30;;;18.20;99.90;;;;;;5069283;28;20176;-66
2023/09/20 06:37:50;;;;;;;2.45;1.60;;;18.20;99.90;;;;;;5040563;28;20208;-66
2023/09/20 06:40:33;;;;;;;2.45;1.27;;;18.30;99.90;;;;;;5052963;28;20238;-66
2023/09/20 06:43:00;;;;;;;3.47;1.50;;;18.30;99.90;;;;;;5053426;28;20173;-66
2023/09/20 06:45:27;;;;;;;2.25;1.50;;;18.40;99.90;;;;;;5053392;28;20197;-66
2023/09/20 06:47:55;;;;;;;1.67;1.35;;;18.40;99.90;;;;;;5036842;28;20186;-65
2023/09/20 06:50:21;;;;;;;2.05;1.40;;;18.50;99.90;;;;;;5053318;28;20177;-65
2023/09/20 06:52:48;;;;;;;1.77;1.30;;;18.50;99.90;;;;;;5035963;28;20205;-65
2023/09/20 06:55:16;;;;;;;2.85;1.25;;;18.50;99.90;;;;;;5045579;28;20196;-65
2023/09/20 06:57:47;;;;;;;4.55;1.60;;;18.60;99.90;;;;;;5040227;28;20192;-65
2023/09/20 07:00:19;;;;;;;5.28;2.83;;;18.60;99.90;;;;;;5053287;28;20197;-65
2023/09/20 07:02:46;;;;;;;2.38;1.58;;;18.70;99.90;;;;;;5059959;28;20181;-66
2023/09/20 07:05:13;;;;;;;3.00;1.80;;;18.70;99.90;;;;;;5046596;28;20184;-65
2023/09/20 07:07:39;;;;;;;3.88;1.60;;;18.80;99.90;;;;;;5050196;28;20178;-65
2023/09/20 07:10:05;;;;;;;3.50;1.70;;;18.80;99.90;;;;;;5033805;28;20205;-65
2023/09/20 07:12:34;;;;;;;1.83;1.27;;;18.80;99.90;;;;;;5053273;28;20192;-65
2023/09/20 07:15:06;;;;;;;2.67;1.55;;;18.90;99.90;;;;;;5067832;28;20188;-66
2023/09/20 07:17:32;;;;;;;2.38;1.40;;;18.90;99.90;;;;;;5054013;28;20221;-65
2023/09/20 07:19:57;;;;;;;2.92;1.50;;;19.00;99.90;;;;;;5051667;28;20237;-65
2023/09/20 07:22:23;;;;;;;1.77;1.30;;;19.00;99.90;;;;;;5037157;28;20181;-66
2023/09/20 07:24:54;;;;;;;2.53;1.83;;;19.10;99.90;;;;;;5053535;28;20181;-65
2023/09/20 07:27:23;;;;;;;2.17;1.80;;;19.10;99.90;;;;;;5069022;28;20236;-65
2023/09/20 07:29:51;;;;;;;3.65;1.42;;;19.20;99.90;;;;;;5036346;28;20185;-67
2023/09/20 07:32:17;;;;;;;3.33;1.98;;;19.20;99.90;;;;;;5038784;28;20196;-66
2023/09/20 07:34:48;;;;;;;2.20;1.52;;;19.30;99.90;;;;;;5056300;28;20198;-66
2023/09/20 07:37:16;;;;;;;2.17;1.33;;;19.30;99.90;;;;;;5038917;28;20207;-67
2023/09/20 07:39:42;;;;;;;3.72;1.30;;;19.40;99.90;;;;;;5052969;28;20276;-66
2023/09/20 07:42:08;;;;;;;2.75;1.30;;;19.50;99.90;;;;;;5053746;28;20201;-66
2023/09/20 07:44:35;;;;;;;2.10;1.35;;;19.50;99.90;;;;;;5051257;28;20200;-66
2023/09/20 07:47:01;;;;;;;1.75;1.30;;;19.50;99.90;;;;;;5051408;28;20207;-66
2023/09/20 07:49:32;;;;;;;2.17;1.20;;;19.60;99.90;;;;;;5050059;28;20239;-66
2023/09/20 07:51:58;;;;;;;2.95;1.20;;;19.70;99.90;;;;;;5040275;28;20278;-66
2023/09/20 07:54:23;;;;;;;2.03;1.30;;;19.70;99.90;;;;;;5056186;28;20293;-66
2023/09/20 07:56:52;;;;;;;2.88;1.60;;;19.70;99.90;;;;;;5037003;28;20223;-67
2023/09/20 07:59:20;;;;;;;2.72;1.20;;;19.80;99.90;;;;;;5072702;28;20173;-66
2023/09/20 08:01:47;;;;;;;1.80;1.35;;;19.90;99.90;;;;;;5056157;28;20193;-66
2023/09/20 08:04:17;;;;;;;5.18;1.58;;;19.90;99.90;;;;;;5055043;28;20185;-66
2023/09/20 08:06:48;;;;;;;2.65;1.73;;;20.00;99.90;;;;;;5056008;28;20177;-67
2023/09/20 08:09:13;;;;;;;2.10;1.30;;;20.00;99.90;;;;;;5055580;28;20204;-67
2023/09/20 08:11:39;;;;;;;2.55;1.40;;;20.10;99.90;;;;;;5056555;28;20173;-66
2023/09/20 08:14:05;;;;;;;2.72;1.38;;;20.10;99.90;;;;;;5072179;28;20238;-67
2023/09/20 08:16:33;;;;;;;1.65;1.13;;;20.20;99.90;;;;;;5056058;28;20240;-66
2023/09/20 08:19:21;;;;;;;2.83;1.40;;;20.30;99.90;;;;;;5055159;28;20257;-67
2023/09/20 08:21:47;;;;;;;2.45;1.00;;;20.40;99.90;;;;;;5056242;28;20189;-67
2023/09/20 09:00:24;;;;;;;3.35;1.30;;;21.40;99.90;;;;;;5056983;28;20238;-67
2023/09/20 09:03:03;;;;;;;2.42;1.30;;;21.50;99.90;;;;;;5036604;28;20196;-66
2023/09/20 09:05:36;;;;;;;1.48;1.05;;;21.50;99.90;;;;;;5055357;28;20245;-66
2023/09/20 09:08:03;;;;;;;2.38;0.93;;;21.60;99.90;;;;;;5052025;28;20177;-66
2023/09/20 09:10:31;;;;;;;2.40;1.20;;;21.60;99.90;;;;;;5052686;28;20216;-66
2023/09/20 09:12:57;;;;;;;3.08;1.35;;;21.60;99.90;;;;;;5055373;28;20182;-66
2023/09/20 09:15:25;;;;;;;2.03;1.10;;;21.70;99.90;;;;;;5071577;28;20188;-66
2023/09/20 09:17:50;;;;;;;1.67;1.02;;;21.70;99.90;;;;;;5055497;28;20237;-66
2023/09/20 09:20:21;;;;;;;1.63;1.00;;;21.80;99.90;;;;;;5036732;28;20193;-66
2023/09/20 09:22:47;;;;;;;1.20;1.00;;;21.80;99.90;;;;;;5044901;28;20172;-66
2023/09/20 09:25:16;;;;;;;1.60;1.10;;;21.90;99.90;;;;;;5057549;28;20178;-66
2023/09/20 09:27:43;;;;;;;1.52;0.82;;;21.90;99.90;;;;;;5054578;28;20185;-66
2023/09/20 09:30:14;;;;;;;1.58;1.10;;;22.00;99.90;;;;;;5038044;28;20258;-66
2023/09/20 09:32:43;;;;;;;1.45;0.88;;;22.10;99.90;;;;;;5038332;28;20177;-66
2023/09/20 09:35:12;;;;;;;2.30;1.08;;;22.10;99.90;;;;;;5037880;28;20195;-65
2023/09/20 09:37:39;;;;;;;2.55;1.10;;;22.20;99.90;;;;;;5053509;28;20285;-66
2023/09/20 09:40:09;;;;;;;2.58;1.10;;;22.40;99.90;;;;;;5051516;28;20190;-66
2023/09/20 09:42:40;;;;;;;1.90;1.00;;;22.50;99.90;;;;;;5035170;28;20460;-66
2023/09/20 09:45:07;;;;;;;2.05;1.23;;;22.60;99.90;;;;;;5053331;28;20193;-67
2023/09/20 09:47:35;;;;;;;1.98;0.98;;;22.80;99.90;;;;;;5039569;28;20173;-66
2023/09/20 09:50:03;;;;;;;2.35;1.10;;;23.00;99.90;;;;;;5054646;28;20226;-66
2023/09/20 09:52:29;;;;;;;1.60;1.10;;;23.30;99.90;;;;;;5039236;28;20335;-68
2023/09/20 09:54:58;;;;;;;1.65;0.95;;;23.40;99.90;;;;;;5056914;28;20225;-66
2023/09/20 09:57:24;;;;;;;1.23;0.88;;;23.40;99.90;;;;;;5054700;28;20193;-67
2023/09/20 09:59:51;;;;;;;1.80;0.90;;;23.50;99.90;;;;;;5053273;28;20170;-66
2023/09/20 10:02:19;;;;;;;2.05;1.00;;;23.60;99.90;;;;;;5054287;28;20200;-68
2023/09/20 10:05:06;;;;;;;3.83;1.10;;;23.80;99.90;;;;;;5037183;28;20205;-66
2023/09/20 10:07:35;;;;;;;1.83;1.20;;;24.10;99.90;;;;;;5057921;28;20169;-66
2023/09/20 10:10:08;;;;;;;2.33;1.00;;;24.30;99.90;;;;;;5053625;28;20181;-66
2023/09/20 10:12:39;;;;;;;2.05;0.90;;;24.30;99.90;;;;;;5052946;28;20200;-67
2023/09/20 10:15:11;;;;;;;2.20;1.08;;;24.30;99.90;;;;;;5056410;28;20178;-66
2023/09/20 10:17:57;;;;;;;1.73;0.95;;;24.20;99.90;;;;;;5023841;28;20208;-66
2023/09/20 10:21:01;;;;;;;1.77;1.02;;;24.20;99.90;;;;;;5041889;28;20196;-66
2023/09/20 10:23:29;;;;;;;1.65;1.08;;;24.30;99.90;;;;;;5053534;28;20188;-67
2023/09/20 10:26:00;;;;;;;4.63;1.00;;;24.40;99.90;;;;;;5036810;28;20239;-66
2023/09/20 10:28:31;;;;;;;1.90;1.23;;;24.50;99.90;;;;;;5053103;28;20184;-66
2023/09/20 10:31:01;;;;;;;2.47;1.13;;;24.40;99.90;;;;;;5037050;28;20169;-66
2023/09/20 10:33:52;;;;;;;2.40;1.38;;;24.40;99.90;;;;;;5066320;28;20220;-66
2023/09/20 10:36:19;;;;;;;2.10;0.90;;;24.30;99.90;;;;;;5047010;28;20273;-66
2023/09/20 10:38:46;;;;;;;1.42;1.10;;;24.30;99.90;;;;;;5038803;28;20205;-66
2023/09/20 10:41:12;;;;;;;1.42;1.00;;;24.20;99.90;;;;;;5036661;28;20181;-66
2023/09/20 10:43:38;;;;;;;2.03;0.88;;;24.20;99.90;;;;;;5053013;28;20165;-66
2023/09/20 10:46:17;;;;;;;2.03;1.30;;;24.30;99.90;;;;;;5039224;28;20263;-66
2023/09/20 10:48:49;;;;;;;1.65;1.20;;;24.30;99.90;;;;;;5030870;28;20230;-66
2023/09/20 10:51:52;;;;;;;1.98;1.00;;;24.30;99.90;;;;;;5040918;28;20242;-66
2023/09/20 10:54:25;;;;;;;1.55;1.00;;;24.20;99.90;;;;;;5053199;28;20219;-65
2023/09/20 10:56:53;;;;;;;1.52;1.15;;;24.10;99.90;;;;;;5048836;28;21098;-66
2023/09/20 10:59:26;;;;;;;1.45;1.00;;;24.10;99.90;;;;;;5053142;28;20188;-66
2023/09/20 11:01:52;;;;;;;2.08;0.90;;;24.10;99.90;;;;;;5037013;28;20181;-65
2023/09/20 11:04:21;;;;;;;2.40;1.55;;;24.10;99.90;;;;;;5049336;28;20192;-66
2023/09/20 11:06:59;;;;;;;2.38;1.48;;;24.10;99.90;;;;;;5066515;28;20173;-66
2023/09/20 11:09:31;;;;;;;2.53;1.17;;;24.20;99.90;;;;;;5037065;28;20268;-66
2023/09/20 11:12:03;;;;;;;2.47;1.20;;;24.30;99.90;;;;;;5052751;28;20203;-66
2023/09/20 11:14:58;;;;;;;1.92;1.08;;;24.40;99.90;;;;;;5053709;28;20263;-66
2023/09/20 11:17:25;;;;;;;2.92;1.35;;;24.50;99.90;;;;;;5033350;28;20202;-66
2023/09/20 11:19:53;;;;;;;2.35;1.15;;;24.60;99.90;;;;;;5033804;28;20182;-66
2023/09/20 11:22:25;;;;;;;1.40;1.02;;;24.60;99.90;;;;;;5049347;28;20217;-66
2023/09/20 11:24:52;;;;;;;2.20;1.15;;;24.60;99.90;;;;;;5053544;28;20264;-67
2023/09/20 11:27:18;;;;;;;3.92;1.10;;;24.60;99.90;;;;;;5039095;28;20177;-67
2023/09/20 11:29:44;;;;;;;1.73;0.90;;;24.50;99.90;;;;;;5054466;28;20237;-67
2023/09/20 11:32:12;;;;;;;1.20;0.90;;;24.50;99.90;;;;;;5037555;28;20185;-67
2023/09/20 11:34:50;;;;;;;1.80;0.88;;;24.50;99.90;;;;;;5055689;28;20211;-67
2023/09/20 11:37:23;;;;;;;1.27;0.98;;;24.50;99.90;;;;;;5073660;28;20203;-67
2023/09/20 11:39:50;;;;;;;1.92;0.95;;;24.40;99.90;;;;;;5056223;28;20185;-67
2023/09/20 11:42:26;;;;;;;1.67;0.98;;;24.40;99.90;;;;;;5056783;28;20197;-67
2023/09/20 11:45:03;;;;;;;3.05;1.00;;;24.30;99.90;;;;;;5040552;28;20176;-67
2023/09/20 11:47:31;;;;;;;1.77;1.00;;;24.30;99.90;;;;;;5056946;28;20184;-66
2023/09/20 11:49:57;;;;;;;1.38;0.90;;;24.30;99.90;;;;;;5053981;28;20232;-67
2023/09/20 11:52:24;;;;;;;1.20;1.10;;;24.40;99.90;;;;;;5036033;28;20174;-67
2023/09/20 11:54:52;;;;;;;2.38;1.17;;;24.60;99.90;;;;;;5039978;28;21655;-67
2023/09/20 11:57:18;;;;;;;2.60;1.20;;;24.80;99.90;;;;;;5054940;28;20193;-67
2023/09/20 11:59:45;;;;;;;2.25;1.20;;;25.00;99.90;;;;;;5055858;28;20185;-67
2023/09/20 12:02:16;;;;;;;3.78;1.45;;;25.10;99.90;;;;;;5060616;28;20199;-66
2023/09/20 12:04:44;;;;;;;2.53;1.42;;;25.20;99.90;;;;;;5059382;28;20231;-67
2023/09/20 12:07:09;;;;;;;2.03;1.10;;;25.40;99.90;;;;;;5053396;28;20178;-67
2023/09/20 12:09:36;;;;;;;3.03;1.33;;;25.50;99.90;;;;;;5038597;28;20211;-67
2023/09/20 12:12:05;;;;;;;4.40;1.65;;;25.60;99.90;;;;;;5039496;28;20182;-66
2023/09/20 12:14:33;;;;;;;4.55;1.42;;;25.70;99.90;;;;;;5056157;28;20207;-67
2023/09/20 12:16:59;;;;;;;2.72;1.15;;;25.80;99.90;;;;;;5055561;28;20209;-67
2023/09/20 12:19:25;;;;;;;1.55;1.20;;;25.80;99.90;;;;;;5055241;28;20203;-67
2023/09/20 12:21:51;;;;;;;2.33;1.10;;;25.90;99.90;;;;;;5063802;28;20201;-67
2023/09/20 12:24:19;;;;;;;2.42;1.30;;;26.00;99.90;;;;;;5055878;28;20235;-67
2023/09/20 12:26:45;;;;;;;1.45;1.10;;;26.00;99.90;;;;;;5054394;28;20181;-67
2023/09/20 12:29:11;;;;;;;2.72;1.20;;;26.10;99.90;;;;;;5054014;28;20177;-67
2023/09/20 12:31:39;;;;;;;2.90;1.30;;;26.10;99.90;;;;;;5039662;28;20191;-66
2023/09/20 12:34:05;;;;;;;2.17;1.20;;;26.20;99.90;;;;;;5040716;28;20188;-67
2023/09/20 12:36:33;;;;;;;1.67;1.15;;;26.20;99.90;;;;;;5063482;28;20196;-67
2023/09/20 12:39:01;;;;;;;1.75;1.33;;;26.30;99.90;;;;;;5055548;28;20197;-67
2023/09/20 12:41:27;;;;;;;2.33;1.33;;;26.40;99.90;;;;;;5051554;28;20166;-67
2023/09/20 12:43:53;;;;;;;2.38;1.30;;;26.50;99.90;;;;;;5056238;28;20197;-66
2023/09/20 12:46:19;;;;;;;1.85;1.20;;;26.60;99.90;;;;;;5071582;28;20195;-65
2023/09/20 12:48:44;;;;;;;1.70;1.15;;;26.60;99.90;;;;;;5056185;28;20181;-66
2023/09/20 12:51:12;;;;;;;2.35;1.30;;;26.60;99.90;;;;;;5055376;28;20205;-67
2023/09/20 12:53:41;;;;;;;2.10;0.93;;;26.60;99.90;;;;;;5055745;28;20256;-67
2023/09/20 12:56:13;;;;;;;5.45;1.40;;;26.70;99.90;;;;;;5054339;28;20185;-66
2023/09/20 12:58:44;;;;;;;2.67;1.48;;;26.60;99.90;;;;;;5055473;28;20197;-66
2023/09/20 13:01:10;;;;;;;1.92;1.15;;;26.50;99.90;;;;;;5042738;28;20184;-67
2023/09/20 13:03:44;;;;;;;2.67;1.35;;;26.40;99.90;;;;;;5054148;28;20174;-67
2023/09/20 13:06:13;;;;;;;1.85;1.25;;;26.40;99.90;;;;;;5055968;28;20173;-67
2023/09/20 13:08:40;;;;;;;1.70;1.17;;;26.30;99.90;;;;;;5053921;28;20188;-67
2023/09/20 13:11:10;;;;;;;2.17;1.30;;;26.30;99.90;;;;;;5055168;28;20200;-67
2023/09/20 13:13:41;;;;;;;1.85;1.10;;;26.20;99.90;;;;;;5054202;28;20169;-67
2023/09/20 13:16:09;;;;;;;4.05;1.55;;;26.20;99.90;;;;;;5054770;28;20173;-67
2023/09/20 13:18:36;;;;;;;2.33;1.20;;;26.30;99.90;;;;;;5054213;28;20209;-67
2023/09/20 13:21:05;;;;;;;2.55;1.30;;;26.30;99.90;;;;;;5038440;28;20180;-67
2023/09/20 13:23:31;;;;;;;3.10;1.40;;;26.40;99.90;;;;;;5052042;28;20194;-67
2023/09/20 13:25:59;;;;;;;2.58;1.50;;;26.60;99.90;;;;;;5041844;28;20268;-67
2023/09/20 13:28:25;;;;;;;2.20;1.20;;;26.60;99.90;;;;;;5055494;28;20169;-67
2023/09/20 13:30:51;;;;;;;1.85;1.20;;;26.70;99.90;;;;;;5054279;28;20192;-67
2023/09/20 13:33:17;;;;;;;1.88;1.10;;;26.80;99.90;;;;;;5054318;28;20173;-67